createdAt,value
2018-12-21T00:00:08.222Z,1009.04
2018-12-21T00:01:08.142Z,1009.05
2018-12-21T00:02:08.072Z,1009.04
2018-12-21T00:03:07.967Z,1009.05
2018-12-21T00:04:07.881Z,1009.08
2018-12-21T00:05:07.804Z,1009.08
2018-12-21T00:06:07.716Z,1009.04
2018-12-21T00:07:07.654Z,1009.08
2018-12-21T00:08:07.554Z,1009.04
2018-12-21T00:09:07.460Z,1009.05
2018-12-21T00:10:07.376Z,1008.98
2018-12-21T00:11:07.298Z,1008.98
2018-12-21T00:12:07.211Z,1008.97
2018-12-21T00:13:07.137Z,1008.97
2018-12-21T00:14:07.150Z,1008.92
2018-12-21T00:15:06.959Z,1008.89
2018-12-21T00:16:06.870Z,1008.87
2018-12-21T00:17:06.793Z,1008.79
2018-12-21T00:18:06.721Z,1008.82
2018-12-21T00:19:06.632Z,1008.81
2018-12-21T00:20:06.531Z,1008.79
2018-12-21T00:21:06.448Z,1008.80
2018-12-21T00:22:06.376Z,1008.76
2018-12-21T00:23:06.295Z,1008.77
2018-12-21T00:24:06.197Z,1008.68
2018-12-21T00:25:06.116Z,1008.66
2018-12-21T00:26:06.029Z,1008.69
2018-12-21T00:27:05.943Z,1008.72
2018-12-21T00:28:05.883Z,1008.70
2018-12-21T00:29:05.781Z,1008.76
2018-12-21T00:30:05.698Z,1008.65
2018-12-21T00:31:05.619Z,1008.69
2018-12-21T00:32:05.521Z,1008.58
2018-12-21T00:33:05.450Z,1008.65
2018-12-21T00:34:05.353Z,1008.62
2018-12-21T00:35:05.275Z,1008.62
2018-12-21T00:36:05.181Z,1008.60
2018-12-21T00:37:05.099Z,1008.62
2018-12-21T00:38:05.749Z,1008.65
2018-12-21T00:39:05.333Z,1008.61
2018-12-21T00:40:04.847Z,1008.64
2018-12-21T00:41:04.772Z,1008.59
2018-12-21T00:42:04.677Z,1008.62
2018-12-21T00:43:04.612Z,1008.55
2018-12-21T00:44:04.523Z,1008.53
2018-12-21T00:45:04.424Z,1008.52
2018-12-21T00:46:04.341Z,1008.44
2018-12-21T00:47:04.259Z,1008.43
2018-12-21T00:48:04.193Z,1008.46
2018-12-21T00:49:04.096Z,1008.42
2018-12-21T00:50:04.003Z,1008.49
2018-12-21T00:51:03.971Z,1008.49
2018-12-21T00:52:03.832Z,1008.50
2018-12-21T00:53:03.749Z,1008.48
2018-12-21T00:54:03.683Z,1008.47
2018-12-21T00:55:03.583Z,1008.45
2018-12-21T00:56:03.495Z,1008.46
2018-12-21T00:57:03.422Z,1008.43
2018-12-21T00:58:03.331Z,1008.43
2018-12-21T00:59:03.266Z,1008.45
2018-12-21T01:00:03.158Z,1008.44
2018-12-21T01:01:03.074Z,1008.43
2018-12-21T01:02:03.014Z,1008.43
2018-12-21T01:03:02.916Z,1008.41
2018-12-21T01:04:02.835Z,1008.42
2018-12-21T01:05:02.742Z,1008.43
2018-12-21T01:06:03.042Z,1008.43
2018-12-21T01:07:02.573Z,1008.45
2018-12-21T01:08:02.491Z,1008.42
2018-12-21T01:09:02.418Z,1008.41
2018-12-21T01:10:02.341Z,1008.42
2018-12-21T01:11:02.237Z,1008.45
2018-12-21T01:12:02.148Z,1008.43
2018-12-21T01:13:02.062Z,1008.40
2018-12-21T01:14:01.999Z,1008.40
2018-12-21T01:15:01.896Z,1008.39
2018-12-21T01:16:01.809Z,1008.35
2018-12-21T01:17:01.731Z,1008.30
2018-12-21T01:18:01.640Z,1008.24
2018-12-21T01:19:01.578Z,1008.25
2018-12-21T01:20:01.475Z,1008.22
2018-12-21T01:21:01.396Z,1008.22
2018-12-21T01:22:01.307Z,1008.23
2018-12-21T01:23:01.224Z,1008.23
2018-12-21T01:24:01.179Z,1008.18
2018-12-21T01:25:01.051Z,1008.15
2018-12-21T01:26:00.970Z,1008.15
2018-12-21T01:27:00.891Z,1008.20
2018-12-21T01:28:00.799Z,1008.16
2018-12-21T01:29:00.719Z,1008.19
2018-12-21T01:30:00.645Z,1008.07
2018-12-21T01:31:00.557Z,1008.12
2018-12-21T01:32:00.461Z,1008.06
2018-12-21T01:33:00.384Z,1008.15
2018-12-21T01:34:00.293Z,1008.16
2018-12-21T01:35:00.243Z,1008.18
2018-12-21T01:36:00.125Z,1008.15
2018-12-21T01:37:00.053Z,1008.16
2018-12-21T01:37:59.957Z,1008.07
2018-12-21T01:38:59.877Z,1008.10
2018-12-21T01:39:59.800Z,1008.10
2018-12-21T01:40:59.709Z,1008.12
2018-12-21T01:41:59.618Z,1008.08
2018-12-21T01:42:59.543Z,1008.09
2018-12-21T01:43:59.451Z,1008.04
2018-12-21T01:44:59.431Z,1008.02
2018-12-21T01:45:59.284Z,1007.96
2018-12-21T01:46:59.199Z,1007.98
2018-12-21T01:47:59.119Z,1007.99
2018-12-21T01:48:59.043Z,1007.96
2018-12-21T01:49:59.463Z,1007.93
2018-12-21T01:50:59.268Z,1007.92
2018-12-21T01:51:58.778Z,1007.93
2018-12-21T01:52:58.693Z,1007.87
2018-12-21T01:53:58.617Z,1007.91
2018-12-21T01:54:58.563Z,1007.88
2018-12-21T01:55:58.449Z,1007.85
2018-12-21T01:56:58.358Z,1007.85
2018-12-21T01:57:58.274Z,1007.75
2018-12-21T01:58:58.190Z,1007.80
2018-12-21T01:59:58.124Z,1007.73
2018-12-21T02:00:58.021Z,1007.74
2018-12-21T02:01:57.938Z,1007.73
2018-12-21T02:02:57.852Z,1007.73
2018-12-21T02:03:57.778Z,1007.71
2018-12-21T02:04:57.697Z,1007.71
2018-12-21T02:05:57.605Z,1007.64
2018-12-21T02:06:57.516Z,1007.63
2018-12-21T02:07:57.430Z,1007.59
2018-12-21T02:08:57.356Z,1007.61
2018-12-21T02:09:57.285Z,1007.57
2018-12-21T02:10:57.186Z,1007.55
2018-12-21T02:11:57.102Z,1007.48
2018-12-21T02:12:57.010Z,1007.51
2018-12-21T02:13:56.932Z,1007.44
2018-12-21T02:14:56.843Z,1007.46
2018-12-21T02:15:56.778Z,1007.39
2018-12-21T02:16:56.674Z,1007.35
2018-12-21T02:17:56.597Z,1007.33
2018-12-21T02:18:56.506Z,1007.35
2018-12-21T02:19:56.429Z,1007.33
2018-12-21T02:20:56.352Z,1007.30
2018-12-21T02:21:56.280Z,1007.26
2018-12-21T02:22:56.169Z,1007.28
2018-12-21T02:23:56.088Z,1007.29
2018-12-21T02:24:56.007Z,1007.25
2018-12-21T02:25:55.933Z,1007.23
2018-12-21T02:26:55.832Z,1007.18
2018-12-21T02:27:55.755Z,1007.17
2018-12-21T02:28:55.667Z,1007.14
2018-12-21T02:29:55.581Z,1007.15
2018-12-21T02:30:55.519Z,1007.11
2018-12-21T02:31:55.413Z,1007.11
2018-12-21T02:32:55.330Z,1007.09
2018-12-21T02:33:55.249Z,1007.08
2018-12-21T02:34:55.159Z,1007.07
2018-12-21T02:35:55.094Z,1007.02
2018-12-21T02:36:54.998Z,1007.01
2018-12-21T02:37:54.907Z,1007.02
2018-12-21T02:38:54.823Z,1007.00
2018-12-21T02:39:54.746Z,1006.99
2018-12-21T02:40:54.685Z,1007.00
2018-12-21T02:41:54.570Z,1006.98
2018-12-21T02:42:54.497Z,1006.89
2018-12-21T02:43:54.405Z,1006.88
2018-12-21T02:44:54.332Z,1006.85
2018-12-21T02:45:54.373Z,1006.83
2018-12-21T02:46:54.161Z,1006.85
2018-12-21T02:47:54.067Z,1006.87
2018-12-21T02:48:53.988Z,1006.84
2018-12-21T02:49:53.894Z,1006.78
2018-12-21T02:50:53.818Z,1006.83
2018-12-21T02:51:53.741Z,1006.81
2018-12-21T02:52:53.651Z,1006.82
2018-12-21T02:53:53.562Z,1006.78
2018-12-21T02:54:53.483Z,1006.73
2018-12-21T02:55:53.391Z,1006.70
2018-12-21T02:56:53.324Z,1006.69
2018-12-21T02:57:53.221Z,1006.65
2018-12-21T02:58:53.143Z,1006.64
2018-12-21T02:59:53.050Z,1006.62
2018-12-21T03:00:52.974Z,1006.63
2018-12-21T03:01:52.901Z,1006.61
2018-12-21T03:02:52.814Z,1006.56
2018-12-21T03:03:52.717Z,1006.53
2018-12-21T03:04:52.640Z,1006.56
2018-12-21T03:05:52.546Z,1006.50
2018-12-21T03:06:52.482Z,1006.55
2018-12-21T03:07:52.377Z,1006.55
2018-12-21T03:08:52.292Z,1006.53
2018-12-21T03:09:52.216Z,1006.54
2018-12-21T03:10:52.126Z,1006.45
2018-12-21T03:11:52.056Z,1006.50
2018-12-21T03:12:51.963Z,1006.51
2018-12-21T03:13:51.874Z,1006.48
2018-12-21T03:14:51.787Z,1006.48
2018-12-21T03:15:51.709Z,1006.50
2018-12-21T03:16:51.636Z,1006.46
2018-12-21T03:17:51.535Z,1006.44
2018-12-21T03:18:51.460Z,1006.44
2018-12-21T03:19:51.369Z,1006.40
2018-12-21T03:20:51.283Z,1006.38
2018-12-21T03:21:51.221Z,1006.32
2018-12-21T03:22:51.114Z,1006.29
2018-12-21T03:23:51.115Z,1006.28
2018-12-21T03:24:50.953Z,1006.23
2018-12-21T03:25:50.861Z,1006.20
2018-12-21T03:26:50.799Z,1006.21
2018-12-21T03:27:50.689Z,1006.19
2018-12-21T03:28:50.611Z,1006.14
2018-12-21T03:29:50.532Z,1006.11
2018-12-21T03:30:50.451Z,1006.09
2018-12-21T03:31:50.412Z,1006.10
2018-12-21T03:32:50.288Z,1006.07
2018-12-21T03:33:50.186Z,1006.06
2018-12-21T03:34:50.103Z,1006.02
2018-12-21T03:35:50.026Z,1005.97
2018-12-21T03:36:49.946Z,1005.95
2018-12-21T03:37:49.862Z,1005.94
2018-12-21T03:38:49.773Z,1005.87
2018-12-21T03:39:49.681Z,1005.86
2018-12-21T03:40:49.599Z,1005.88
2018-12-21T03:41:49.519Z,1005.87
2018-12-21T03:42:49.443Z,1005.82
2018-12-21T03:43:49.358Z,1005.80
2018-12-21T03:44:49.264Z,1005.78
2018-12-21T03:45:49.175Z,1005.75
2018-12-21T03:46:49.098Z,1005.69
2018-12-21T03:47:49.026Z,1005.63
2018-12-21T03:48:48.928Z,1005.65
2018-12-21T03:49:48.837Z,1005.56
2018-12-21T03:50:48.762Z,1005.56
2018-12-21T03:51:48.667Z,1005.52
2018-12-21T03:52:48.604Z,1005.50
2018-12-21T03:53:48.505Z,1005.50
2018-12-21T03:54:48.421Z,1005.39
2018-12-21T03:55:48.329Z,1005.40
2018-12-21T03:56:48.254Z,1005.40
2018-12-21T03:57:48.176Z,1005.31
2018-12-21T03:58:48.079Z,1005.25
2018-12-21T03:59:47.998Z,1005.26
2018-12-21T04:00:47.907Z,1005.22
2018-12-21T04:01:47.824Z,1005.23
2018-12-21T04:02:48.761Z,1005.14
2018-12-21T04:03:47.654Z,1005.17
2018-12-21T04:04:47.573Z,1005.07
2018-12-21T04:05:47.494Z,1004.99
2018-12-21T04:06:47.402Z,1004.97
2018-12-21T04:07:47.339Z,1004.98
2018-12-21T04:08:47.233Z,1004.87
2018-12-21T04:09:47.156Z,1004.81
2018-12-21T04:10:47.066Z,1004.80
2018-12-21T04:11:46.991Z,1004.79
2018-12-21T04:12:46.914Z,1004.75
2018-12-21T04:13:46.822Z,1004.75
2018-12-21T04:14:46.732Z,1004.72
2018-12-21T04:15:46.651Z,1004.72
2018-12-21T04:16:46.559Z,1004.69
2018-12-21T04:17:46.495Z,1004.70
2018-12-21T04:18:46.392Z,1004.71
2018-12-21T04:19:46.314Z,1004.62
2018-12-21T04:20:46.224Z,1004.54
2018-12-21T04:21:46.146Z,1004.56
2018-12-21T04:22:46.071Z,1004.52
2018-12-21T04:23:45.970Z,1004.57
2018-12-21T04:24:45.894Z,1004.60
2018-12-21T04:25:45.805Z,1004.55
2018-12-21T04:26:46.118Z,1004.55
2018-12-21T04:27:45.653Z,1004.46
2018-12-21T04:28:45.552Z,1004.50
2018-12-21T04:29:45.471Z,1004.51
2018-12-21T04:30:45.391Z,1004.43
2018-12-21T04:31:45.297Z,1004.44
2018-12-21T04:32:45.224Z,1004.39
2018-12-21T04:33:45.134Z,1004.33
2018-12-21T04:34:45.044Z,1004.33
2018-12-21T04:35:44.960Z,1004.30
2018-12-21T04:36:44.879Z,1004.23
2018-12-21T04:37:44.805Z,1004.24
2018-12-21T04:38:44.704Z,1004.19
2018-12-21T04:39:44.628Z,1004.24
2018-12-21T04:40:44.536Z,1004.19
2018-12-21T04:41:44.453Z,1004.16
2018-12-21T04:42:44.383Z,1004.22
2018-12-21T04:43:44.294Z,1004.23
2018-12-21T04:44:44.205Z,1004.26
2018-12-21T04:45:44.124Z,1004.25
2018-12-21T04:46:44.028Z,1004.26
2018-12-21T04:47:43.961Z,1004.29
2018-12-21T04:48:43.862Z,1004.23
2018-12-21T04:49:43.776Z,1004.24
2018-12-21T04:50:43.694Z,1004.24
2018-12-21T04:51:43.606Z,1004.22
2018-12-21T04:52:43.691Z,1004.21
2018-12-21T04:53:43.448Z,1004.25
2018-12-21T04:54:43.348Z,1004.19
2018-12-21T04:55:43.276Z,1004.20
2018-12-21T04:56:43.179Z,1004.20
2018-12-21T04:57:43.147Z,1004.15
2018-12-21T04:58:43.012Z,1004.09
2018-12-21T04:59:43.028Z,1004.07
2018-12-21T05:00:42.847Z,1003.99
2018-12-21T05:01:42.837Z,1004.03
2018-12-21T05:02:42.685Z,1004.01
2018-12-21T05:03:49.608Z,1003.93
2018-12-21T05:04:42.501Z,1003.92
2018-12-21T05:05:42.454Z,1003.89
2018-12-21T05:06:42.332Z,1003.89
2018-12-21T05:07:42.263Z,1003.89
2018-12-21T05:08:42.180Z,1003.95
2018-12-21T05:09:43.097Z,1003.90
2018-12-21T05:10:42.000Z,1003.85
2018-12-21T05:11:41.984Z,1003.78
2018-12-21T05:12:41.825Z,1003.76
2018-12-21T05:13:41.825Z,1003.79
2018-12-21T05:14:41.654Z,1003.78
2018-12-21T05:15:41.606Z,1003.74
2018-12-21T05:16:41.623Z,1003.71
2018-12-21T05:17:41.517Z,1003.64
2018-12-21T05:18:41.329Z,1003.62
2018-12-21T05:19:41.228Z,1003.59
2018-12-21T05:20:42.255Z,1003.52
2018-12-21T05:21:41.066Z,1003.51
2018-12-21T05:22:40.977Z,1003.49
2018-12-21T05:23:40.908Z,1003.47
2018-12-21T05:24:40.804Z,1003.47
2018-12-21T05:25:40.720Z,1003.42
2018-12-21T05:26:40.645Z,1003.34
2018-12-21T05:27:40.567Z,1003.36
2018-12-21T05:28:40.486Z,1003.38
2018-12-21T05:29:40.395Z,1003.33
2018-12-21T05:30:40.296Z,1003.31
2018-12-21T05:31:40.215Z,1003.22
2018-12-21T05:32:42.132Z,1003.26
2018-12-21T05:33:40.147Z,1003.25
2018-12-21T05:34:39.956Z,1003.17
2018-12-21T05:35:40.296Z,1003.14
2018-12-21T05:36:39.787Z,1003.21
2018-12-21T05:37:39.815Z,1003.14
2018-12-21T05:38:39.630Z,1003.08
2018-12-21T05:39:39.619Z,1003.10
2018-12-21T05:40:39.447Z,1003.09
2018-12-21T05:41:39.430Z,1002.93
2018-12-21T05:42:39.279Z,1002.90
2018-12-21T05:43:39.255Z,1002.87
2018-12-21T05:44:39.107Z,1002.82
2018-12-21T05:45:39.023Z,1002.86
2018-12-21T05:46:38.963Z,1002.71
2018-12-21T05:47:38.855Z,1002.67
2018-12-21T05:48:38.783Z,1002.63
2018-12-21T05:49:38.693Z,1002.59
2018-12-21T05:50:38.597Z,1002.56
2018-12-21T05:51:38.520Z,1002.49
2018-12-21T05:52:38.429Z,1002.48
2018-12-21T05:53:38.364Z,1002.42
2018-12-21T05:54:38.259Z,1002.39
2018-12-21T05:55:38.174Z,1002.39
2018-12-21T05:56:38.090Z,1002.34
2018-12-21T05:57:38.008Z,1002.23
2018-12-21T05:58:37.936Z,1002.23
2018-12-21T05:59:37.837Z,1002.25
2018-12-21T06:00:37.749Z,1002.15
2018-12-21T06:01:37.678Z,1002.14
2018-12-21T06:02:37.579Z,1002.12
2018-12-21T06:03:37.516Z,1002.11
2018-12-21T06:04:37.411Z,1002.09
2018-12-21T06:05:37.333Z,1002.10
2018-12-21T06:06:37.240Z,1002.10
2018-12-21T06:07:37.335Z,1002.04
2018-12-21T06:08:37.083Z,1002.04
2018-12-21T06:09:37.143Z,1001.96
2018-12-21T06:10:36.901Z,1001.91
2018-12-21T06:11:36.813Z,1001.96
2018-12-21T06:12:37.088Z,1001.89
2018-12-21T06:13:36.706Z,1001.97
2018-12-21T06:14:36.575Z,1001.92
2018-12-21T06:15:36.594Z,1001.89
2018-12-21T06:16:36.392Z,1001.85
2018-12-21T06:17:36.311Z,1001.83
2018-12-21T06:18:36.232Z,1001.81
2018-12-21T06:19:36.208Z,1001.73
2018-12-21T06:20:36.055Z,1001.80
2018-12-21T06:21:35.969Z,1001.67
2018-12-21T06:22:35.924Z,1001.73
2018-12-21T06:23:35.807Z,1001.66
2018-12-21T06:24:35.711Z,1001.68
2018-12-21T06:25:35.633Z,1001.69
2018-12-21T06:26:35.550Z,1001.64
2018-12-21T06:27:35.547Z,1001.63
2018-12-21T06:28:35.388Z,1001.60
2018-12-21T06:29:35.357Z,1001.50
2018-12-21T06:30:35.202Z,1001.46
2018-12-21T06:31:35.187Z,1001.44
2018-12-21T06:32:35.072Z,1001.40
2018-12-21T06:33:34.967Z,1001.36
2018-12-21T06:34:34.864Z,1001.36
2018-12-21T06:35:34.885Z,1001.31
2018-12-21T06:36:34.697Z,1001.27
2018-12-21T06:37:34.669Z,1001.20
2018-12-21T06:38:34.535Z,1001.23
2018-12-21T06:39:34.476Z,1001.18
2018-12-21T06:40:34.355Z,1001.25
2018-12-21T06:41:34.269Z,1001.28
2018-12-21T06:42:34.191Z,1001.30
2018-12-21T06:43:34.113Z,1001.16
2018-12-21T06:44:34.013Z,1001.17
2018-12-21T06:45:33.935Z,1001.18
2018-12-21T06:46:33.846Z,1001.16
2018-12-21T06:47:33.766Z,1001.11
2018-12-21T06:48:33.687Z,1001.03
2018-12-21T06:49:33.609Z,1001.03
2018-12-21T06:50:33.512Z,1000.98
2018-12-21T06:51:33.420Z,1001.06
2018-12-21T06:52:33.341Z,1001.04
2018-12-21T06:53:33.254Z,1001.03
2018-12-21T06:54:33.179Z,1001.02
2018-12-21T06:55:33.089Z,1000.92
2018-12-21T06:56:32.995Z,1000.88
2018-12-21T06:57:32.915Z,1000.92
2018-12-21T06:58:32.827Z,1000.90
2018-12-21T06:59:32.760Z,1000.88
2018-12-21T07:00:32.656Z,1000.90
2018-12-21T07:01:32.578Z,1000.80
2018-12-21T07:02:32.487Z,1000.74
2018-12-21T07:03:32.406Z,1000.72
2018-12-21T07:04:32.329Z,1000.67
2018-12-21T07:05:32.239Z,1000.69
2018-12-21T07:06:32.148Z,1000.72
2018-12-21T07:07:32.067Z,1000.70
2018-12-21T07:08:31.976Z,1000.70
2018-12-21T07:09:31.910Z,1000.72
2018-12-21T07:10:31.808Z,1000.70
2018-12-21T07:11:31.727Z,1000.67
2018-12-21T07:12:31.637Z,1000.76
2018-12-21T07:13:31.563Z,1000.63
2018-12-21T07:14:31.488Z,1000.61
2018-12-21T07:15:31.389Z,1000.61
2018-12-21T07:16:31.300Z,1000.57
2018-12-21T07:17:31.230Z,1000.49
2018-12-21T07:18:31.128Z,1000.48
2018-12-21T07:19:31.064Z,1000.50
2018-12-21T07:20:30.958Z,1000.47
2018-12-21T07:21:30.878Z,1000.48
2018-12-21T07:22:30.801Z,1000.50
2018-12-21T07:23:30.704Z,1000.52
2018-12-21T07:24:30.637Z,1000.53
2018-12-21T07:25:30.541Z,1000.47
2018-12-21T07:26:30.453Z,1000.53
2018-12-21T07:27:30.365Z,1000.50
2018-12-21T07:28:30.290Z,1000.49
2018-12-21T07:29:30.216Z,1000.45
2018-12-21T07:30:30.113Z,1000.47
2018-12-21T07:31:30.033Z,1000.46
2018-12-21T07:32:29.944Z,1000.44
2018-12-21T07:33:29.868Z,1000.47
2018-12-21T07:34:29.796Z,1000.49
2018-12-21T07:35:29.694Z,1000.40
2018-12-21T07:36:29.610Z,1000.30
2018-12-21T07:37:29.526Z,1000.33
2018-12-21T07:38:29.437Z,1000.34
2018-12-21T07:39:29.371Z,1000.37
2018-12-21T07:40:29.263Z,1000.28
2018-12-21T07:41:29.216Z,1000.21
2018-12-21T07:42:29.105Z,1000.19
2018-12-21T07:43:29.014Z,1000.16
2018-12-21T07:44:28.940Z,1000.09
2018-12-21T07:45:28.848Z,1000.06
2018-12-21T07:46:28.756Z,1000.05
2018-12-21T07:47:28.678Z,999.98
2018-12-21T07:48:28.586Z,999.97
2018-12-21T07:49:28.522Z,999.92
2018-12-21T07:50:28.419Z,999.88
2018-12-21T07:51:28.332Z,999.83
2018-12-21T07:52:28.252Z,999.78
2018-12-21T07:53:35.699Z,999.73
2018-12-21T07:54:28.093Z,999.79
2018-12-21T07:55:27.998Z,999.77
2018-12-21T07:56:27.909Z,999.78
2018-12-21T07:57:27.822Z,999.70
2018-12-21T07:58:27.740Z,999.70
2018-12-21T07:59:27.679Z,999.64
2018-12-21T08:00:27.570Z,999.56
2018-12-21T08:01:27.486Z,999.57
2018-12-21T08:02:27.400Z,999.58
2018-12-21T08:03:27.320Z,999.53
2018-12-21T08:04:27.243Z,999.52
2018-12-21T08:05:27.149Z,999.46
2018-12-21T08:06:27.069Z,999.40
2018-12-21T08:07:26.977Z,999.36
2018-12-21T08:08:26.891Z,999.37
2018-12-21T08:09:26.823Z,999.37
2018-12-21T08:10:26.730Z,999.36
2018-12-21T08:11:26.637Z,999.25
2018-12-21T08:12:27.368Z,999.20
2018-12-21T08:13:26.469Z,999.17
2018-12-21T08:14:26.403Z,999.16
2018-12-21T08:15:26.300Z,999.16
2018-12-21T08:16:26.215Z,999.16
2018-12-21T08:17:26.135Z,999.12
2018-12-21T08:18:26.046Z,999.10
2018-12-21T08:19:25.979Z,999.06
2018-12-21T08:20:25.872Z,999.07
2018-12-21T08:21:25.798Z,999.02
2018-12-21T08:22:25.705Z,998.96
2018-12-21T08:23:25.631Z,998.92
2018-12-21T08:24:25.564Z,998.95
2018-12-21T08:25:25.463Z,998.92
2018-12-21T08:26:25.374Z,998.92
2018-12-21T08:27:25.287Z,998.90
2018-12-21T08:28:25.197Z,998.82
2018-12-21T08:29:25.119Z,998.72
2018-12-21T08:30:25.041Z,998.83
2018-12-21T08:31:24.950Z,998.77
2018-12-21T08:32:24.858Z,998.75
2018-12-21T08:33:24.777Z,998.69
2018-12-21T08:34:24.698Z,998.62
2018-12-21T08:35:24.618Z,998.54
2018-12-21T08:36:24.528Z,998.50
2018-12-21T08:37:24.439Z,998.54
2018-12-21T08:38:24.353Z,998.51
2018-12-21T08:39:24.270Z,998.53
2018-12-21T08:40:24.196Z,998.45
2018-12-21T08:41:24.102Z,998.26
2018-12-21T08:42:24.011Z,998.30
2018-12-21T08:43:23.932Z,998.31
2018-12-21T08:44:23.842Z,998.39
2018-12-21T08:45:23.782Z,998.31
2018-12-21T08:46:23.677Z,998.34
2018-12-21T08:47:23.592Z,998.38
2018-12-21T08:48:23.505Z,998.31
2018-12-21T08:49:23.424Z,998.31
2018-12-21T08:50:23.352Z,998.23
2018-12-21T08:51:23.260Z,998.14
2018-12-21T08:52:23.172Z,998.13
2018-12-21T08:53:23.082Z,998.17
2018-12-21T08:54:23.003Z,998.15
2018-12-21T08:55:22.927Z,998.17
2018-12-21T08:56:22.832Z,998.10
2018-12-21T08:57:22.797Z,998.07
2018-12-21T08:58:22.660Z,998.07
2018-12-21T08:59:22.582Z,998.08
2018-12-21T09:00:22.502Z,998.06
2018-12-21T09:01:22.415Z,998.05
2018-12-21T09:02:22.321Z,998.03
2018-12-21T09:03:22.232Z,998.06
2018-12-21T09:04:22.160Z,998.07
2018-12-21T09:05:22.083Z,998.01
2018-12-21T09:06:21.984Z,998.01
2018-12-21T09:07:21.903Z,998.08
2018-12-21T09:08:21.814Z,998.08
2018-12-21T09:09:21.731Z,998.13
2018-12-21T09:10:21.664Z,998.01
2018-12-21T09:11:21.562Z,997.96
2018-12-21T09:12:21.478Z,997.98
2018-12-21T09:13:21.404Z,997.97
2018-12-21T09:14:21.307Z,997.95
2018-12-21T09:15:21.235Z,997.95
2018-12-21T09:16:21.143Z,997.90
2018-12-21T09:17:21.057Z,998.00
2018-12-21T09:18:21.020Z,997.89
2018-12-21T09:19:20.883Z,997.83
2018-12-21T09:20:20.820Z,997.81
2018-12-21T09:21:20.716Z,997.89
2018-12-21T09:22:20.631Z,997.87
2018-12-21T09:23:20.548Z,997.74
2018-12-21T09:24:20.467Z,997.76
2018-12-21T09:25:20.393Z,997.81
2018-12-21T09:26:20.293Z,997.77
2018-12-21T09:29:41.797Z,997.85
2018-12-21T09:30:06.497Z,997.78
2018-12-21T09:56:24.575Z,997.49
2018-12-21T09:56:49.078Z,997.51
2018-12-21T09:57:48.992Z,997.43
2018-12-21T09:58:48.911Z,997.41
2018-12-21T09:59:48.820Z,997.43
2018-12-21T10:00:48.757Z,997.36
2018-12-21T10:01:48.650Z,997.37
2018-12-21T10:02:48.593Z,997.36
2018-12-21T10:03:48.479Z,997.36
2018-12-21T10:04:48.405Z,997.45
2018-12-21T10:05:48.324Z,997.43
2018-12-21T10:06:48.250Z,997.43
2018-12-21T10:07:48.148Z,997.41
2018-12-21T10:08:48.064Z,997.43
2018-12-21T10:09:47.979Z,997.45
2018-12-21T10:10:47.902Z,997.40
2018-12-21T10:11:47.803Z,997.39
2018-12-21T10:12:47.728Z,997.37
2018-12-21T10:13:47.636Z,997.35
2018-12-21T10:14:47.552Z,997.34
2018-12-21T10:15:47.486Z,997.27
2018-12-21T10:16:47.391Z,997.29
2018-12-21T10:17:47.305Z,997.26
2018-12-21T10:18:47.224Z,997.27
2018-12-21T10:19:47.131Z,997.25
2018-12-21T10:20:47.061Z,997.35
2018-12-21T10:21:46.968Z,997.29
2018-12-21T10:22:47.527Z,997.24
2018-12-21T10:23:46.795Z,997.23
2018-12-21T10:24:46.718Z,997.25
2018-12-21T10:25:46.639Z,997.24
2018-12-21T10:26:46.547Z,997.23
2018-12-21T10:27:46.469Z,997.31
2018-12-21T10:28:46.379Z,997.31
2018-12-21T10:29:46.288Z,997.31
2018-12-21T10:30:46.224Z,997.28
2018-12-21T10:31:46.121Z,997.28
2018-12-21T10:32:46.053Z,997.27
2018-12-21T10:33:45.954Z,997.22
2018-12-21T10:34:45.875Z,997.19
2018-12-21T10:35:45.798Z,997.22
2018-12-21T10:36:45.707Z,997.24
2018-12-21T10:37:45.621Z,997.21
2018-12-21T10:38:45.533Z,997.18
2018-12-21T10:39:45.448Z,997.16
2018-12-21T10:40:45.387Z,997.19
2018-12-21T10:41:45.279Z,997.13
2018-12-21T10:42:45.198Z,997.08
2018-12-21T10:43:45.112Z,997.05
2018-12-21T10:44:45.035Z,997.05
2018-12-21T10:45:44.958Z,997.09
2018-12-21T10:46:44.861Z,997.13
2018-12-21T10:47:44.783Z,997.09
2018-12-21T10:48:44.696Z,997.16
2018-12-21T10:49:44.614Z,997.12
2018-12-21T10:50:44.557Z,997.14
2018-12-21T10:51:44.443Z,997.14
2018-12-21T10:52:44.361Z,997.04
2018-12-21T10:53:46.686Z,997.03
2018-12-21T10:54:44.195Z,997.03
2018-12-21T10:55:44.113Z,996.95
2018-12-21T10:56:44.037Z,996.95
2018-12-21T10:57:43.946Z,997.02
2018-12-21T10:58:43.855Z,996.93
2018-12-21T10:59:43.830Z,996.90
2018-12-21T11:00:43.693Z,996.95
2018-12-21T11:01:43.628Z,996.98
2018-12-21T11:02:43.520Z,996.93
2018-12-21T11:03:43.444Z,996.99
2018-12-21T11:04:43.366Z,996.91
2018-12-21T11:05:43.282Z,996.98
2018-12-21T11:06:43.204Z,996.98
2018-12-21T11:07:43.121Z,996.85
2018-12-21T11:08:43.024Z,996.88
2018-12-21T11:09:42.938Z,997.00
2018-12-21T11:10:42.860Z,996.98
2018-12-21T11:11:42.785Z,997.02
2018-12-21T11:12:42.688Z,996.95
2018-12-21T11:13:42.612Z,996.89
2018-12-21T11:14:42.522Z,996.90
2018-12-21T11:15:42.447Z,996.87
2018-12-21T11:16:42.367Z,996.82
2018-12-21T11:17:44.065Z,996.91
2018-12-21T11:18:42.189Z,996.75
2018-12-21T11:19:42.111Z,996.84
2018-12-21T11:20:42.031Z,996.82
2018-12-21T11:21:41.969Z,996.80
2018-12-21T11:22:41.855Z,996.94
2018-12-21T11:23:41.780Z,996.85
2018-12-21T11:24:41.694Z,996.77
2018-12-21T11:25:41.613Z,996.81
2018-12-21T11:26:41.544Z,996.82
2018-12-21T11:27:41.445Z,996.85
2018-12-21T11:28:41.357Z,996.80
2018-12-21T11:29:41.282Z,996.81
2018-12-21T11:30:41.192Z,996.81
2018-12-21T11:31:41.122Z,996.89
2018-12-21T11:32:41.035Z,996.79
2018-12-21T11:33:40.943Z,996.74
2018-12-21T11:34:40.859Z,996.78
2018-12-21T11:35:40.784Z,996.65
2018-12-21T11:36:40.706Z,996.79
2018-12-21T11:37:40.618Z,996.84
2018-12-21T11:38:40.531Z,996.81
2018-12-21T11:39:40.445Z,996.84
2018-12-21T11:40:40.370Z,996.82
2018-12-21T11:41:40.293Z,996.79
2018-12-21T11:42:40.197Z,996.90
2018-12-21T11:43:40.121Z,996.73
2018-12-21T11:44:40.031Z,996.83
2018-12-21T11:45:39.947Z,996.84
2018-12-21T11:46:39.888Z,996.75
2018-12-21T11:47:39.784Z,996.73
2018-12-21T11:48:39.700Z,996.80
2018-12-21T11:49:39.617Z,996.78
2018-12-21T11:50:39.539Z,996.83
2018-12-21T11:51:39.467Z,996.81
2018-12-21T11:52:39.367Z,996.91
2018-12-21T11:53:39.285Z,996.91
2018-12-21T11:54:44.179Z,996.83
2018-12-21T11:55:39.125Z,996.89
2018-12-21T11:56:39.064Z,996.79
2018-12-21T11:57:38.967Z,996.81
2018-12-21T11:58:38.878Z,996.81
2018-12-21T11:59:44.887Z,996.84
2018-12-21T12:00:38.726Z,996.85
2018-12-21T12:01:38.653Z,996.88
2018-12-21T12:02:38.543Z,996.86
2018-12-21T12:03:38.462Z,996.78
2018-12-21T12:04:38.387Z,996.90
2018-12-21T12:05:38.299Z,996.83
2018-12-21T12:06:38.237Z,996.89
2018-12-21T12:07:38.130Z,996.94
2018-12-21T12:08:38.055Z,996.85
2018-12-21T12:09:38.050Z,996.90
2018-12-21T12:10:37.888Z,996.90
2018-12-21T12:11:37.854Z,996.83
2018-12-21T12:12:39.288Z,996.90
2018-12-21T12:13:37.633Z,996.91
2018-12-21T12:14:37.561Z,996.96
2018-12-21T12:15:37.474Z,997.00
2018-12-21T12:16:37.405Z,996.94
2018-12-21T12:17:37.312Z,996.98
2018-12-21T12:18:37.227Z,996.95
2018-12-21T12:19:37.143Z,997.03
2018-12-21T12:20:37.097Z,996.97
2018-12-21T12:21:36.990Z,996.99
2018-12-21T12:22:36.896Z,997.04
2018-12-21T12:23:36.817Z,996.82
2018-12-21T12:24:36.728Z,997.05
2018-12-21T12:25:36.647Z,997.05
2018-12-21T12:26:44.268Z,997.16
2018-12-21T12:27:36.484Z,996.96
2018-12-21T12:28:36.403Z,996.88
2018-12-21T12:29:36.325Z,997.03
2018-12-21T12:30:36.234Z,997.01
2018-12-21T12:31:36.304Z,997.09
2018-12-21T12:32:36.070Z,997.02
2018-12-21T12:33:35.993Z,996.97
2018-12-21T12:34:35.906Z,997.08
2018-12-21T12:35:35.833Z,997.07
2018-12-21T12:36:35.742Z,997.03
2018-12-21T12:37:35.681Z,997.07
2018-12-21T12:38:35.582Z,997.02